Time;durP1;ratioP1;P1;durP2;ratioP2;P2;SDS_P1;SDS_P2;PMS_P1;PMS_P2;Temp;Humidity;BMP_temperature;BMP_pressure;BME280_temperature;BME280_humidity;BME280_pressure;Samples;Min_cycle;Max_cycle;Signal;HPM_P1;HPM_P2
2022/07/16 00:02:00;;;;;;;;;;;;;;;28.67;48.26;98686.78;2106516;28;20235;-68
2022/07/16 00:03:01;;;;;;;;;;;;;;;28.69;48.03;98690.88;2103998;28;20444;-68
2022/07/16 00:04:02;;;;;;;;;;;;;;;28.68;47.97;98689.22;2105517;28;19981;-69
2022/07/16 00:05:04;;;;;;;;;;;;;;;28.71;47.55;98691.41;2104677;28;20252;-68
2022/07/16 00:06:05;;;;;;;;;;;;;;;28.71;47.86;98694.16;2106213;28;19928;-69
2022/07/16 00:07:06;;;;;;;;;;;;;;;28.74;47.94;98687.34;2106264;28;19938;-69
2022/07/16 00:08:07;;;;;;;;;;;;;;;28.73;47.56;98685.72;2099668;28;19935;-68
2022/07/16 00:09:12;;;;;;;;;;;;;;;28.71;47.61;98688.69;2105577;28;20303;-69
2022/07/16 00:10:12;;;;;;;;;;;;;;;28.70;47.78;98691.72;2105891;28;19947;-69
2022/07/16 00:11:14;;;;;;;;;;;;;;;28.69;47.38;98690.88;2102009;28;19924;-68
2022/07/16 00:12:14;;;;;;;;;;;;;;;28.70;47.31;98692.53;2104840;28;19939;-69
2022/07/16 00:13:17;;;;;;;;;;;;;;;28.67;47.55;98687.59;2106999;28;19967;-69
2022/07/16 00:14:18;;;;;;;;;;;;;;;28.73;47.13;98691.16;2103685;28;20152;-69
2022/07/16 00:15:20;;;;;;;;;;;;;;;28.71;47.50;98688.69;2105329;28;19963;-69
2022/07/16 00:16:21;;;;;;;;;;;;;;;28.60;48.10;98686.22;2106986;28;19963;-69
2022/07/16 00:17:22;;;;;;;;;;;;;;;28.68;47.96;98696.59;2107680;28;19928;-69
2022/07/16 00:19:42;;;;;;;;;;;;;;;28.64;47.45;98693.59;2092829;28;20390;-69
2022/07/16 00:20:43;;;;;;;;;;;;;;;28.68;47.70;98689.22;2099670;28;20093;-70
2022/07/16 00:21:45;;;;;;;;;;;;;;;28.70;47.91;98688.97;2105822;28;20573;-68
2022/07/16 00:22:46;;;;;;;;;;;;;;;28.58;48.02;98697.38;2104847;28;19927;-68
2022/07/16 00:23:47;;;;;;;;;;;;;;;28.60;47.93;98694.41;2103831;28;20062;-68
2022/07/16 00:24:49;;;;;;;;;;;;;;;28.62;47.71;98692.22;2105056;28;21006;-69
2022/07/16 00:25:50;;;;;;;;;;;;;;;28.63;47.53;98694.66;2100523;28;20419;-67
2022/07/16 00:26:52;;;;;;;;;;;;;;;28.67;47.63;98692.25;2106015;28;19932;-69
2022/07/16 00:27:53;;;;;;;;;;;;;;;28.63;47.39;98691.94;2102809;28;19987;-69
2022/07/16 00:28:56;;;;;;;;;;;;;;;28.60;47.32;98692.47;2105202;28;19927;-69
2022/07/16 00:29:56;;;;;;;;;;;;;;;28.57;47.30;98690.28;2105599;28;19947;-68
2022/07/16 00:30:58;;;;;;;;;;;;;;;28.62;47.75;98689.50;2105872;28;20013;-69
2022/07/16 00:32:01;;;;;;;;;;;;;;;28.65;47.87;98687.03;2106155;28;20423;-68
2022/07/16 00:33:01;;;;;;;;;;;;;;;28.71;47.75;98685.97;2105580;28;20176;-68
2022/07/16 00:34:05;;;;;;;;;;;;;;;28.76;47.66;98695.28;2105887;28;19938;-68
2022/07/16 00:35:06;;;;;;;;;;;;;;;28.68;48.60;98691.97;2102475;28;20303;-69
2022/07/16 00:36:09;;;;;;;;;;;;;;;28.62;48.91;98689.50;2100351;28;19928;-69
2022/07/16 00:37:11;;;;;;;;;;;;;;;28.68;48.65;98688.41;2095369;28;20088;-68
2022/07/16 00:38:12;;;;;;;;;;;;;;;28.69;48.68;98685.41;2106165;28;19957;-68
2022/07/16 00:39:14;;;;;;;;;;;;;;;28.76;49.17;98684.34;2105761;28;19931;-69
2022/07/16 00:40:14;;;;;;;;;;;;;;;28.75;49.37;98683.50;2107037;28;20246;-68
2022/07/16 00:41:17;;;;;;;;;;;;;;;28.74;48.97;98673.69;2106570;28;19942;-68
2022/07/16 00:42:17;;;;;;;;;;;;;;;28.62;49.43;98678.59;2106091;28;19927;-69
2022/07/16 00:43:19;;;;;;;;;;;;;;;28.58;49.82;98674.72;2106343;28;19932;-68
2022/07/16 00:44:22;;;;;;;;;;;;;;;28.68;49.85;98674.78;2105140;28;20023;-69
2022/07/16 00:45:22;;;;;;;;;;;;;;;28.69;49.97;98679.13;2103535;28;20035;-69
2022/07/16 00:46:24;;;;;;;;;;;;;;;28.67;50.10;98684.88;2103371;28;19934;-69
2022/07/16 00:47:25;;;;;;;;;;;;;;;28.71;50.29;98683.22;2105665;28;19931;-68
2022/07/16 00:48:29;;;;;;;;;;;;;;;28.66;50.05;98685.94;2106238;28;19927;-69
2022/07/16 00:49:31;;;;;;;;;;;;;;;28.66;50.12;98683.22;2101715;28;20330;-70
2022/07/16 00:50:32;;;;;;;;;;;;;;;28.65;50.29;98684.31;2090463;28;19932;-68
2022/07/16 00:51:37;;;;;;;;;;;;;;;28.64;50.57;98687.31;2099790;28;20352;-68
2022/07/16 00:52:37;;;;;;;;;;;;;;;28.64;50.57;98687.31;2100757;28;20237;-69
2022/07/16 00:53:39;;;;;;;;;;;;;;;28.63;50.47;98682.94;2103126;28;19927;-68
2022/07/16 00:54:40;;;;;;;;;;;;;;;28.55;50.88;98680.72;2102204;28;19932;-70
2022/07/16 00:55:41;;;;;;;;;;;;;;;28.49;50.97;98685.34;2105461;28;19963;-69
2022/07/16 00:56:43;;;;;;;;;;;;;;;28.41;52.28;98672.19;2100966;27;19986;-68
2022/07/16 00:57:44;;;;;;;;;;;;;;;28.45;51.61;98676.88;2104485;28;20141;-68
2022/07/16 00:58:45;;;;;;;;;;;;;;;28.54;51.31;98677.19;2105638;28;19928;-69
2022/07/16 00:59:49;;;;;;;;;;;;;;;28.55;51.03;98675.28;2103628;28;19946;-69
2022/07/16 01:00:52;;;;;;;;;;;;;;;28.50;51.05;98676.06;2104781;28;19989;-68
2022/07/16 01:01:54;;;;;;;;;;;;;;;28.51;50.65;98675.00;2106233;28;19924;-69
2022/07/16 01:02:56;;;;;;;;;;;;;;;28.38;51.14;98676.28;2098453;28;20018;-68
2022/07/16 01:03:58;;;;;;;;;;;;;;;28.40;50.65;98676.84;2099299;28;19928;-69
2022/07/16 01:04:59;;;;;;;;;;;;;;;28.49;50.38;98679.91;2103547;28;20288;-70
2022/07/16 01:06:01;;;;;;;;;;;;;;;28.48;50.10;98672.81;2105229;28;19934;-69
2022/07/16 01:07:03;;;;;;;;;;;;;;;28.42;50.54;98676.59;2105342;28;19951;-69
2022/07/16 01:08:05;;;;;;;;;;;;;;;28.36;50.41;98677.63;2106088;28;20381;-69
2022/07/16 01:09:06;;;;;;;;;;;;;;;28.40;50.19;98676.84;2103848;28;19924;-68
2022/07/16 01:10:08;;;;;;;;;;;;;;;28.42;49.94;98673.84;2102870;28;20301;-68
2022/07/16 01:11:10;;;;;;;;;;;;;;;28.39;49.81;98677.09;2102582;28;19939;-70
2022/07/16 01:12:12;;;;;;;;;;;;;;;28.44;49.69;98686.13;2106234;28;20170;-69
2022/07/16 01:13:13;;;;;;;;;;;;;;;28.36;50.14;98683.94;2105282;28;19957;-69
2022/07/16 01:14:15;;;;;;;;;;;;;;;28.22;50.29;98680.88;2106281;28;20019;-70
2022/07/16 01:15:17;;;;;;;;;;;;;;;28.30;50.32;98682.25;2106628;28;20405;-70
2022/07/16 01:16:20;;;;;;;;;;;;;;;28.38;49.92;98675.47;2104717;28;19924;-69
2022/07/16 01:17:21;;;;;;;;;;;;;;;28.42;49.54;98677.44;2106368;28;19927;-69
2022/07/16 01:18:25;;;;;;;;;;;;;;;28.43;49.84;98681.78;2106747;28;19934;-68
2022/07/16 01:19:26;;;;;;;;;;;;;;;28.37;49.80;98676.56;2103150;28;19931;-69
2022/07/16 01:20:27;;;;;;;;;;;;;;;28.40;49.72;98673.28;2107934;28;19928;-69
2022/07/16 01:21:28;;;;;;;;;;;;;;;28.41;49.71;98681.19;2106499;28;20388;-70
2022/07/16 01:22:30;;;;;;;;;;;;;;;28.45;49.39;98670.63;2104945;28;19924;-69
2022/07/16 01:23:32;;;;;;;;;;;;;;;28.43;49.32;98678.25;2103095;28;19946;-70
2022/07/16 01:24:33;;;;;;;;;;;;;;;28.45;49.26;98676.88;2106495;28;19935;-69
2022/07/16 01:25:34;;;;;;;;;;;;;;;28.50;49.29;98676.06;2105443;28;19928;-69
2022/07/16 01:26:36;;;;;;;;;;;;;;;28.50;49.13;98676.06;2105716;28;20270;-70
2022/07/16 01:27:38;;;;;;;;;;;;;;;28.51;49.10;98675.00;2097398;28;19936;-69
2022/07/16 01:28:39;;;;;;;;;;;;;;;28.51;49.41;98681.28;2105077;28;19923;-68
2022/07/16 01:29:40;;;;;;;;;;;;;;;28.52;49.21;98682.09;2103402;28;19931;-68
2022/07/16 01:30:42;;;;;;;;;;;;;;;28.44;49.83;98674.41;2102081;28;20018;-69
2022/07/16 01:31:42;;;;;;;;;;;;;;;28.47;50.05;98674.72;2103136;28;19928;-68
2022/07/16 01:32:44;;;;;;;;;;;;;;;28.44;50.25;98683.41;2105051;28;19928;-69
2022/07/16 01:34:24;;;;;;;;;;;;;;;28.37;50.28;98677.38;2103390;28;20020;-69
2022/07/16 01:35:07;;;;;;;;;;;;;;;28.44;50.07;98677.16;2102623;28;20274;-68
2022/07/16 01:36:11;;;;;;;;;;;;;;;28.40;50.33;98676.84;2107793;28;19932;-69
2022/07/16 01:37:14;;;;;;;;;;;;;;;28.43;50.03;98681.78;2101294;28;19932;-69
2022/07/16 01:38:15;;;;;;;;;;;;;;;28.36;50.39;98680.34;2107360;28;19931;-69
2022/07/16 01:39:18;;;;;;;;;;;;;;;28.31;50.58;98672.19;2106298;28;20360;-69
2022/07/16 01:40:20;;;;;;;;;;;;;;;28.28;50.63;98671.63;2107512;28;19931;-69
2022/07/16 01:41:23;;;;;;;;;;;;;;;28.22;50.89;98669.97;2106802;28;19992;-69
2022/07/16 01:42:25;;;;;;;;;;;;;;;28.19;50.77;98672.38;2106152;28;19932;-69
2022/07/16 01:43:26;;;;;;;;;;;;;;;28.21;50.93;98668.28;2107347;28;19943;-68
2022/07/16 01:44:29;;;;;;;;;;;;;;;28.26;50.80;98671.06;2108451;28;20014;-69
2022/07/16 01:45:29;;;;;;;;;;;;;;;28.23;50.95;98671.59;2107843;28;20702;-69
2022/07/16 01:46:31;;;;;;;;;;;;;;;28.20;51.14;98677.56;2109371;28;19924;-69
2022/07/16 01:47:32;;;;;;;;;;;;;;;28.14;51.16;98673.19;2103712;28;19931;-69
2022/07/16 01:48:33;;;;;;;;;;;;;;;28.18;51.08;98677.00;2102055;28;19938;-68
2022/07/16 01:49:35;;;;;;;;;;;;;;;28.21;51.20;98673.75;2108102;28;19931;-69
2022/07/16 01:50:37;;;;;;;;;;;;;;;28.28;50.81;98671.63;2105994;28;19962;-69
2022/07/16 01:51:37;;;;;;;;;;;;;;;28.20;51.01;98666.66;2104083;28;19927;-69
2022/07/16 01:52:39;;;;;;;;;;;;;;;28.07;51.58;98676.13;2106233;28;20439;-69
2022/07/16 01:53:40;;;;;;;;;;;;;;;28.18;50.84;98671.56;2105670;28;19928;-69
2022/07/16 01:54:43;;;;;;;;;;;;;;;28.14;51.45;98664.16;2108031;28;20304;-69
2022/07/16 01:55:44;;;;;;;;;;;;;;;28.22;51.10;98663.66;2107320;28;20265;-69
2022/07/16 01:56:48;;;;;;;;;;;;;;;28.27;50.88;98664.50;2106826;28;20197;-69
2022/07/16 01:57:49;;;;;;;;;;;;;;;28.33;50.88;98669.97;2105674;28;20016;-69
2022/07/16 01:58:51;;;;;;;;;;;;;;;28.31;50.63;98669.44;2107976;28;20520;-68
2022/07/16 01:59:51;;;;;;;;;;;;;;;28.23;51.34;98668.03;2107312;28;19928;-68
2022/07/16 02:00:53;;;;;;;;;;;;;;;28.27;51.18;98663.69;2107899;28;20581;-68
2022/07/16 02:02:01;;;;;;;;;;;;;;;28.32;51.00;98669.16;2106735;28;19924;-68
2022/07/16 02:03:03;;;;;;;;;;;;;;;28.35;50.58;98665.09;2106803;28;20541;-69
2022/07/16 02:04:04;;;;;;;;;;;;;;;28.16;51.70;98670.19;2107638;28;19935;-69
2022/07/16 02:05:06;;;;;;;;;;;;;;;28.14;52.29;98673.19;2108297;28;20378;-69
2022/07/16 02:06:06;;;;;;;;;;;;;;;28.16;52.44;98665.53;2105300;28;19928;-71
2022/07/16 02:07:08;;;;;;;;;;;;;;;28.16;51.77;98660.09;2102636;28;19972;-68
2022/07/16 02:08:09;;;;;;;;;;;;;;;28.13;51.97;98663.34;2105822;28;19946;-69
2022/07/16 02:09:11;;;;;;;;;;;;;;;28.11;52.65;98662.81;2105080;28;20376;-69
2022/07/16 02:10:14;;;;;;;;;;;;;;;28.11;52.10;98665.53;2109240;28;19928;-70
2022/07/16 02:11:15;;;;;;;;;;;;;;;28.13;52.48;98663.34;2106538;28;19971;-69
2022/07/16 02:12:16;;;;;;;;;;;;;;;28.18;52.12;98666.09;2109635;28;19936;-69
2022/07/16 02:13:18;;;;;;;;;;;;;;;28.17;51.84;98667.22;2110258;27;19923;-69
2022/07/16 02:14:18;;;;;;;;;;;;;;;28.21;51.76;98668.28;2105323;28;19932;-70
2022/07/16 02:15:20;;;;;;;;;;;;;;;28.18;51.81;98663.38;2110173;28;20368;-69
2022/07/16 02:16:20;;;;;;;;;;;;;;;28.20;51.74;98672.13;2109692;27;20426;-69
2022/07/16 02:17:23;;;;;;;;;;;;;;;28.22;51.70;98669.13;2109418;28;19934;-69
2022/07/16 02:18:23;;;;;;;;;;;;;;;28.22;51.83;98674.56;2110241;28;19928;-69
2022/07/16 02:19:25;;;;;;;;;;;;;;;28.27;51.58;98669.13;2109814;28;19924;-69
2022/07/16 02:20:25;;;;;;;;;;;;;;;28.28;51.80;98671.63;2108971;28;20048;-69
2022/07/16 02:21:27;;;;;;;;;;;;;;;28.14;52.09;98667.75;2109945;28;20349;-69
2022/07/16 02:22:28;;;;;;;;;;;;;;;28.05;52.47;98666.59;2100030;28;20390;-69
2022/07/16 02:23:29;;;;;;;;;;;;;;;27.96;52.68;98671.72;2107865;28;19950;-69
2022/07/16 02:24:30;;;;;;;;;;;;;;;28.05;52.27;98669.31;2107667;28;19927;-69
2022/07/16 02:25:33;;;;;;;;;;;;;;;28.10;52.22;98665.78;2093608;28;19930;-70
2022/07/16 02:26:35;;;;;;;;;;;;;;;28.18;51.87;98666.09;2099407;28;19935;-70
2022/07/16 02:27:37;;;;;;;;;;;;;;;28.22;51.93;98669.13;2106317;28;20278;-69
2022/07/16 02:28:37;;;;;;;;;;;;;;;28.25;51.29;98663.97;2109450;28;19951;-69
2022/07/16 02:29:39;;;;;;;;;;;;;;;28.30;51.29;98665.88;2109597;28;20399;-69
2022/07/16 02:30:41;;;;;;;;;;;;;;;28.31;51.46;98669.44;2109473;28;19923;-69
2022/07/16 02:31:42;;;;;;;;;;;;;;;28.33;51.32;98672.72;2105232;28;19939;-68
2022/07/16 02:32:43;;;;;;;;;;;;;;;28.29;51.38;98673.25;2106104;28;19927;-68
2022/07/16 02:33:44;;;;;;;;;;;;;;;28.23;51.51;98668.88;2107861;28;19924;-69
2022/07/16 02:34:45;;;;;;;;;;;;;;;28.26;51.13;98665.59;2107906;28;19935;-68
2022/07/16 02:35:47;;;;;;;;;;;;;;;28.16;51.71;98673.72;2107913;28;19930;-68
2022/07/16 02:36:47;;;;;;;;;;;;;;;28.24;51.51;98666.94;2102974;28;19954;-69
2022/07/16 02:37:49;;;;;;;;;;;;;;;28.23;51.60;98665.31;2107682;28;20088;-69
2022/07/16 02:38:49;;;;;;;;;;;;;;;28.24;51.75;98666.94;2104273;28;19930;-69
2022/07/16 02:39:51;;;;;;;;;;;;;;;28.22;51.33;98666.38;2107144;28;20579;-69
2022/07/16 02:40:55;;;;;;;;;;;;;;;28.17;51.56;98672.66;2106763;28;19928;-69
2022/07/16 02:41:57;;;;;;;;;;;;;;;28.22;50.95;98674.56;2106373;28;19927;-69
2022/07/16 02:42:57;;;;;;;;;;;;;;;28.24;50.87;98667.75;2108812;28;19939;-69
2022/07/16 02:43:59;;;;;;;;;;;;;;;28.17;51.54;98667.22;2106477;27;19935;-68
2022/07/16 02:45:00;;;;;;;;;;;;;;;28.16;51.73;98668.28;2109396;27;20308;-69
2022/07/16 02:46:01;;;;;;;;;;;;;;;28.23;51.24;98665.31;2108578;27;20014;-68
2022/07/16 02:47:02;;;;;;;;;;;;;;;28.26;51.21;98673.78;2109813;28;20400;-68
2022/07/16 02:48:04;;;;;;;;;;;;;;;28.24;51.20;98662.31;2108452;28;20182;-69
2022/07/16 02:49:05;;;;;;;;;;;;;;;28.24;51.37;98665.03;2106659;28;19923;-69
2022/07/16 02:50:08;;;;;;;;;;;;;;;28.27;51.12;98667.22;2108370;28;19984;-69
2022/07/16 02:51:09;;;;;;;;;;;;;;;28.24;51.31;98667.75;2102907;28;19924;-68
2022/07/16 02:52:10;;;;;;;;;;;;;;;28.21;51.11;98668.28;2105383;28;19932;-69
2022/07/16 02:53:11;;;;;;;;;;;;;;;28.15;51.37;98663.91;2104481;28;19928;-68
2022/07/16 02:54:13;;;;;;;;;;;;;;;28.14;51.33;98666.88;2104841;28;23068;-69
2022/07/16 02:55:17;;;;;;;;;;;;;;;28.21;51.26;98664.75;2106583;28;19938;-69
2022/07/16 02:56:23;;;;;;;;;;;;;;;28.17;51.33;98659.03;2104669;28;20298;-68
2022/07/16 02:57:24;;;;;;;;;;;;;;;28.07;51.54;98672.59;2104957;28;20758;-68
2022/07/16 02:58:25;;;;;;;;;;;;;;;28.02;51.50;98669.84;2105703;28;19928;-68
2022/07/16 02:59:26;;;;;;;;;;;;;;;28.14;51.33;98672.34;2094124;28;19989;-68
2022/07/16 03:00:28;;;;;;;;;;;;;;;28.08;51.21;98668.78;2098168;28;20245;-69
2022/07/16 03:01:29;;;;;;;;;;;;;;;28.13;51.01;98670.72;2105570;28;20409;-68
2022/07/16 03:02:31;;;;;;;;;;;;;;;28.13;50.79;98674.25;2107387;28;20212;-69
2022/07/16 03:03:31;;;;;;;;;;;;;;;28.06;50.74;98669.06;2110310;28;19935;-69
2022/07/16 03:04:33;;;;;;;;;;;;;;;28.00;50.90;98672.84;2109397;28;20477;-69
2022/07/16 03:05:33;;;;;;;;;;;;;;;27.85;51.07;98670.84;2108393;28;19950;-68
2022/07/16 03:06:36;;;;;;;;;;;;;;;27.80;51.18;98670.84;2105379;28;19934;-67
2022/07/16 03:07:37;;;;;;;;;;;;;;;27.74;51.01;98673.75;2108322;28;20304;-69
2022/07/16 03:08:39;;;;;;;;;;;;;;;27.70;51.04;98676.19;2110162;28;20010;-68
2022/07/16 03:09:40;;;;;;;;;;;;;;;27.85;50.77;98670.84;2109954;28;19923;-69
2022/07/16 03:10:42;;;;;;;;;;;;;;;27.79;50.27;98674.63;2106630;28;19938;-68
2022/07/16 03:11:44;;;;;;;;;;;;;;;27.75;50.68;98676.22;2100155;28;19924;-70
2022/07/16 03:12:45;;;;;;;;;;;;;;;27.67;50.93;98671.25;2107875;28;20540;-70
2022/07/16 03:13:46;;;;;;;;;;;;;;;27.68;50.37;98675.59;2104685;28;19932;-69
2022/07/16 03:14:48;;;;;;;;;;;;;;;27.59;50.49;98669.03;2108341;28;19928;-69
2022/07/16 03:15:48;;;;;;;;;;;;;;;27.67;50.56;98675.88;2107119;28;19935;-70
2022/07/16 03:16:50;;;;;;;;;;;;;;;27.63;50.31;98667.41;2107155;28;20014;-70
2022/07/16 03:17:54;;;;;;;;;;;;;;;27.59;50.23;98674.47;2104062;28;19990;-70
2022/07/16 03:18:56;;;;;;;;;;;;;;;27.55;50.33;98676.06;2104075;28;19994;-68
2022/07/16 03:19:57;;;;;;;;;;;;;;;27.57;50.26;98673.91;2103643;28;20171;-70
2022/07/16 03:20:59;;;;;;;;;;;;;;;27.62;50.26;98676.66;2104808;28;20010;-70
2022/07/16 03:21:59;;;;;;;;;;;;;;;27.74;49.88;98671.00;2105990;28;20088;-70
2022/07/16 03:23:01;;;;;;;;;;;;;;;27.77;49.59;98673.22;2106257;28;19934;-69
2022/07/16 03:24:02;;;;;;;;;;;;;;;27.66;49.74;98671.50;2106787;28;19932;-69
2022/07/16 03:25:03;;;;;;;;;;;;;;;27.62;49.58;98674.75;2107829;28;20818;-69
2022/07/16 03:26:04;;;;;;;;;;;;;;;27.62;49.85;98676.66;2106695;28;19931;-69
2022/07/16 03:27:07;;;;;;;;;;;;;;;27.74;49.58;98674.56;2105118;28;19935;-70
2022/07/16 03:28:08;;;;;;;;;;;;;;;27.74;49.63;98677.28;2105717;28;19942;-69
2022/07/16 03:29:12;;;;;;;;;;;;;;;27.65;49.86;98678.06;2107200;28;19927;-69
2022/07/16 03:30:13;;;;;;;;;;;;;;;27.69;49.66;98679.97;2102026;28;19971;-67
2022/07/16 03:31:17;;;;;;;;;;;;;;;27.71;49.61;98679.72;2093524;28;19936;-69
2022/07/16 03:32:19;;;;;;;;;;;;;;;27.69;49.66;98679.16;2103379;28;19924;-69
2022/07/16 03:33:21;;;;;;;;;;;;;;;27.79;49.35;98674.63;2096520;28;20476;-69
2022/07/16 03:34:22;;;;;;;;;;;;;;;27.85;49.58;98676.28;2107809;28;20192;-68
2022/07/16 03:35:23;;;;;;;;;;;;;;;27.82;49.97;98681.47;2103307;28;20071;-69
2022/07/16 03:36:26;;;;;;;;;;;;;;;27.82;50.33;98674.09;2104142;28;19935;-70
2022/07/16 03:37:27;;;;;;;;;;;;;;;27.72;50.61;98682.19;2104590;28;20058;-70
2022/07/16 03:39:48;;;;;;;;;;;;;;;27.75;50.64;98681.66;2103554;28;21025;-69
2022/07/16 03:40:49;;;;;;;;;;;;;;;27.68;50.66;98675.59;2104769;28;19934;-69
2022/07/16 03:41:51;;;;;;;;;;;;;;;27.80;50.96;98679.00;2106951;28;19930;-69
2022/07/16 03:42:52;;;;;;;;;;;;;;;27.88;50.60;98679.59;2106052;28;20384;-70
2022/07/16 03:43:54;;;;;;;;;;;;;;;27.88;50.68;98674.13;2105902;28;20609;-69
2022/07/16 03:44:55;;;;;;;;;;;;;;;27.91;50.54;98677.13;2107989;28;19939;-69
2022/07/16 03:45:56;;;;;;;;;;;;;;;27.95;50.68;98680.19;2106338;28;20356;-70
2022/07/16 03:46:57;;;;;;;;;;;;;;;27.93;50.30;98680.44;2099355;28;20320;-70
2022/07/16 03:47:58;;;;;;;;;;;;;;;27.97;50.66;98683.44;2106412;28;19931;-69
2022/07/16 03:48:59;;;;;;;;;;;;;;;28.02;50.35;98676.09;2103034;28;19935;-70
2022/07/16 03:50:00;;;;;;;;;;;;;;;27.98;50.70;98685.09;2090374;28;19939;-69
2022/07/16 03:51:01;;;;;;;;;;;;;;;27.88;51.04;98685.84;2085376;28;20079;-70
2022/07/16 03:52:02;;;;;;;;;;;;;;;27.91;50.68;98684.50;2096316;28;20755;-69
2022/07/16 03:53:03;;;;;;;;;;;;;;;27.94;50.73;98683.97;2104745;28;19942;-69
2022/07/16 03:54:05;;;;;;;;;;;;;;;27.81;51.18;98680.63;2094223;28;20388;-69
2022/07/16 03:55:09;;;;;;;;;;;;;;;27.86;51.14;98682.59;2093841;28;20420;-70
2022/07/16 03:56:10;;;;;;;;;;;;;;;27.92;50.97;98684.25;2097496;28;20861;-69
2022/07/16 03:57:11;;;;;;;;;;;;;;;27.92;51.21;98677.97;2106827;28;19985;-69
2022/07/16 03:58:14;;;;;;;;;;;;;;;27.98;50.93;98691.38;2090822;27;20040;-68
2022/07/16 03:59:15;;;;;;;;;;;;;;;27.98;51.41;98682.38;2105435;28;20576;-68
2022/07/16 04:00:16;;;;;;;;;;;;;;;27.98;51.25;98680.47;2104102;28;20026;-69
2022/07/16 04:01:17;;;;;;;;;;;;;;;28.02;51.14;98681.56;2105253;28;19924;-68
2022/07/16 04:02:18;;;;;;;;;;;;;;;27.97;51.69;98689.75;2094452;28;19928;-69
2022/07/16 04:03:19;;;;;;;;;;;;;;;28.01;51.30;98692.75;2104954;28;19967;-69
2022/07/16 04:04:20;;;;;;;;;;;;;;;27.95;52.08;98682.91;2103649;28;19928;-69
2022/07/16 04:05:21;;;;;;;;;;;;;;;27.95;52.03;98682.91;2103068;28;19939;-68
2022/07/16 04:06:22;;;;;;;;;;;;;;;27.97;51.74;98691.63;2102253;28;19932;-69
2022/07/16 04:07:23;;;;;;;;;;;;;;;27.98;51.34;98683.19;2103138;28;19927;-68
2022/07/16 04:08:25;;;;;;;;;;;;;;;27.99;51.64;98681.28;2099626;28;19928;-69
2022/07/16 04:09:25;;;;;;;;;;;;;;;27.94;51.13;98686.69;2106051;28;19928;-70
2022/07/16 04:10:27;;;;;;;;;;;;;;;27.94;51.32;98694.88;2103877;28;19932;-69
2022/07/16 04:11:27;;;;;;;;;;;;;;;27.66;51.51;98690.59;2107900;28;19935;-69
2022/07/16 04:12:29;;;;;;;;;;;;;;;27.62;51.61;98690.28;2103720;28;20292;-69
2022/07/16 04:13:36;;;;;;;;;;;;;;;27.47;51.62;98692.88;2106296;28;19998;-69
2022/07/16 04:14:37;;;;;;;;;;;;;;;27.38;51.51;98687.91;2104810;28;20004;-70
2022/07/16 04:15:38;;;;;;;;;;;;;;;27.40;51.38;98688.47;2103564;28;19934;-68
2022/07/16 04:16:42;;;;;;;;;;;;;;;27.45;50.96;98681.44;2103217;28;19934;-69
2022/07/16 04:17:46;;;;;;;;;;;;;;;27.44;50.87;98696.13;2106916;28;20010;-69
2022/07/16 04:18:47;;;;;;;;;;;;;;;27.56;50.52;98691.34;2102357;28;20783;-70
2022/07/16 04:19:48;;;;;;;;;;;;;;;27.68;50.47;98691.97;2105124;28;19924;-69
2022/07/16 04:20:49;;;;;;;;;;;;;;;27.77;50.10;98689.56;2102955;28;19927;-69
2022/07/16 04:21:50;;;;;;;;;;;;;;;27.82;49.72;98698.63;2105142;28;19923;-68
2022/07/16 04:22:52;;;;;;;;;;;;;;;27.81;49.99;98699.72;2104167;28;19924;-69
2022/07/16 04:23:52;;;;;;;;;;;;;;;27.80;49.62;98699.97;2104505;28;19931;-70
2022/07/16 04:24:54;;;;;;;;;;;;;;;27.83;49.75;98697.56;2101372;28;20527;-69
2022/07/16 04:25:55;;;;;;;;;;;;;;;27.89;49.43;98700.28;2106098;28;20114;-69
2022/07/16 04:26:57;;;;;;;;;;;;;;;27.92;49.38;98700.59;2107343;28;19928;-69
2022/07/16 04:27:57;;;;;;;;;;;;;;;27.93;49.21;98701.41;2109245;28;20519;-69
2022/07/16 04:29:00;;;;;;;;;;;;;;;27.87;49.38;98700.56;2101137;28;19928;-69
2022/07/16 04:30:01;;;;;;;;;;;;;;;27.79;49.64;98704.59;2106038;28;19935;-68
2022/07/16 04:31:03;;;;;;;;;;;;;;;27.76;49.47;98693.38;2104523;28;19928;-68
2022/07/16 04:32:04;;;;;;;;;;;;;;;27.76;49.19;98699.66;2105943;28;23726;-69
2022/07/16 04:33:05;;;;;;;;;;;;;;;27.77;49.07;98701.28;2106530;28;19934;-69
2022/07/16 04:34:07;;;;;;;;;;;;;;;27.82;48.74;98698.63;2105280;28;20381;-69
2022/07/16 04:35:09;;;;;;;;;;;;;;;27.80;49.07;98699.97;2107172;28;20521;-68
2022/07/16 04:36:11;;;;;;;;;;;;;;;27.82;48.90;98693.16;2102615;28;19932;-69
2022/07/16 04:37:11;;;;;;;;;;;;;;;27.87;47.89;98695.13;2101871;28;20105;-69
2022/07/16 04:38:13;;;;;;;;;;;;;;;27.85;48.11;98687.19;2103356;28;19975;-69
2022/07/16 04:39:13;;;;;;;;;;;;;;;27.88;47.80;98691.28;2105233;28;19951;-69
2022/07/16 04:40:16;;;;;;;;;;;;;;;27.75;47.19;98698.03;2104024;28;19932;-68
2022/07/16 04:41:16;;;;;;;;;;;;;;;27.62;47.14;98685.66;2106528;28;20245;-68
2022/07/16 04:42:20;;;;;;;;;;;;;;;27.58;47.04;98691.88;2097127;28;19928;-68
2022/07/16 04:43:21;;;;;;;;;;;;;;;27.55;46.67;98687.81;2103399;28;20098;-69
2022/07/16 04:44:26;;;;;;;;;;;;;;;27.49;46.48;98696.19;2100968;28;19962;-69
2022/07/16 04:45:27;;;;;;;;;;;;;;;27.44;46.87;98696.13;2104898;28;20014;-69
2022/07/16 04:46:28;;;;;;;;;;;;;;;27.38;47.40;98693.38;2098645;28;19940;-69
2022/07/16 04:47:29;;;;;;;;;;;;;;;27.36;46.69;98692.00;2105397;28;19938;-69
2022/07/16 04:48:30;;;;;;;;;;;;;;;27.29;46.74;98692.22;2104298;28;20086;-68
2022/07/16 04:49:31;;;;;;;;;;;;;;;27.41;46.59;98692.03;2103259;28;20019;-68
2022/07/16 04:50:32;;;;;;;;;;;;;;;27.51;46.66;98688.56;2096740;28;19923;-69
2022/07/16 04:51:34;;;;;;;;;;;;;;;27.57;46.32;98687.53;2103083;28;20300;-69
2022/07/16 04:52:34;;;;;;;;;;;;;;;27.61;45.93;98691.38;2101380;28;19939;-69
2022/07/16 04:53:36;;;;;;;;;;;;;;;27.62;45.95;98690.28;2106772;28;20139;-69
2022/07/16 04:54:36;;;;;;;;;;;;;;;27.57;46.14;98690.25;2103450;28;20411;-68
2022/07/16 04:55:40;;;;;;;;;;;;;;;27.50;45.81;98685.03;2105379;28;19924;-69
2022/07/16 04:56:40;;;;;;;;;;;;;;;27.49;45.67;98688.00;2103484;28;20043;-69
2022/07/16 04:57:42;;;;;;;;;;;;;;;27.44;45.59;98696.13;2106195;28;20474;-69
2022/07/16 04:58:42;;;;;;;;;;;;;;;27.43;45.67;98686.34;2104459;28;20320;-69
2022/07/16 04:59:45;;;;;;;;;;;;;;;27.35;46.09;98688.44;2088737;28;19951;-69
2022/07/16 05:00:46;;;;;;;;;;;;;;;27.35;46.20;98695.78;2101319;28;19932;-69
2022/07/16 05:01:48;;;;;;;;;;;;;;;27.33;45.92;98682.44;2106414;28;20283;-70
2022/07/16 05:02:57;;;;;;;;;;;;;;;27.33;45.86;98689.78;2103667;28;19928;-70
2022/07/16 05:03:59;;;;;;;;;;;;;;;27.16;46.22;98689.91;2105458;28;19928;-70
2022/07/16 05:05:03;;;;;;;;;;;;;;;27.12;46.33;98683.31;2102747;28;19928;-69
2022/07/16 05:06:05;;;;;;;;;;;;;;;27.18;46.45;98701.38;2099447;28;20047;-69
2022/07/16 05:07:05;;;;;;;;;;;;;;;27.22;46.38;98694.34;2099423;28;23194;-68
2022/07/16 05:08:07;;;;;;;;;;;;;;;27.12;46.72;98692.31;2101927;28;19939;-68
2022/07/16 05:09:08;;;;;;;;;;;;;;;27.06;46.96;98696.06;2098684;28;19928;-68
2022/07/16 05:10:10;;;;;;;;;;;;;;;27.09;46.56;98694.72;2104209;28;20018;-68
2022/07/16 05:11:11;;;;;;;;;;;;;;;27.11;46.60;98698.84;2103185;28;20301;-69
2022/07/16 05:12:12;;;;;;;;;;;;;;;27.12;46.92;98700.47;2103325;28;19935;-69
2022/07/16 05:13:13;;;;;;;;;;;;;;;27.27;46.55;98705.25;2105853;28;20540;-69
2022/07/16 05:14:15;;;;;;;;;;;;;;;27.28;46.12;98703.38;2104185;28;20420;-69
2022/07/16 05:15:17;;;;;;;;;;;;;;;27.31;46.01;98694.69;2103026;28;19939;-70
2022/07/16 05:16:18;;;;;;;;;;;;;;;27.30;46.29;98702.03;2088651;28;19955;-69
2022/07/16 05:17:19;;;;;;;;;;;;;;;27.35;45.82;98698.53;2100183;28;20003;-69
2022/07/16 05:18:21;;;;;;;;;;;;;;;27.31;45.83;98692.78;2103035;28;20501;-70
2022/07/16 05:19:22;;;;;;;;;;;;;;;27.28;46.03;98697.94;2097930;28;19938;-69
2022/07/16 05:20:23;;;;;;;;;;;;;;;27.27;45.81;98697.09;2095093;28;19934;-69
2022/07/16 05:21:25;;;;;;;;;;;;;;;27.33;45.80;98698.78;2100170;28;20038;-68
2022/07/16 05:22:25;;;;;;;;;;;;;;;27.35;45.90;98699.34;2095433;28;19963;-69
2022/07/16 05:23:27;;;;;;;;;;;;;;;27.37;45.76;98702.63;2102616;28;20373;-69
2022/07/16 05:24:27;;;;;;;;;;;;;;;27.38;45.69;98704.25;2098277;28;19939;-69
2022/07/16 05:25:29;;;;;;;;;;;;;;;27.44;45.78;98705.13;2106555;28;19967;-69